createdAt,value
2023-11-30T00:01:10.733Z,4.35
2023-11-30T00:03:37.715Z,4.30
2023-11-30T00:06:04.778Z,3.08
2023-11-30T00:08:31.557Z,2.03
2023-11-30T00:10:58.320Z,2.38
2023-11-30T00:13:25.091Z,2.40
2023-11-30T00:15:51.818Z,1.98
2023-11-30T00:18:18.742Z,3.75
2023-11-30T00:20:45.569Z,2.92
2023-11-30T00:23:12.911Z,2.30
2023-11-30T00:25:39.658Z,1.90
2023-11-30T00:28:06.557Z,1.80
2023-11-30T00:30:33.371Z,2.00
2023-11-30T00:33:00.350Z,2.90
2023-11-30T00:35:27.692Z,1.65
2023-11-30T00:37:54.500Z,5.43
2023-11-30T00:40:21.166Z,3.80
2023-11-30T00:42:47.966Z,3.15
2023-11-30T00:45:15.034Z,3.55
2023-11-30T00:47:41.803Z,2.60
2023-11-30T00:50:08.926Z,1.70
2023-11-30T00:52:35.650Z,2.78
2023-11-30T00:55:02.506Z,1.92
2023-11-30T00:57:29.317Z,4.20
2023-11-30T00:59:56.314Z,4.93
2023-11-30T01:02:23.133Z,4.53
2023-11-30T01:04:49.913Z,5.10
2023-11-30T01:07:16.655Z,4.13
2023-11-30T01:09:43.499Z,3.63
2023-11-30T01:12:10.250Z,2.92
2023-11-30T01:14:37.145Z,2.78
2023-11-30T01:17:04.084Z,3.20
2023-11-30T01:19:30.921Z,3.58
2023-11-30T01:21:57.953Z,2.78
2023-11-30T01:24:24.926Z,2.50
2023-11-30T01:26:51.724Z,2.42
2023-11-30T01:29:18.398Z,3.72
2023-11-30T01:31:45.167Z,4.50
2023-11-30T01:34:12.196Z,3.65
2023-11-30T01:36:38.927Z,2.45
2023-11-30T01:39:05.700Z,1.83
2023-11-30T01:41:32.444Z,2.08
2023-11-30T01:43:59.184Z,1.38
2023-11-30T01:46:25.971Z,2.00
2023-11-30T01:48:52.777Z,1.98
2023-11-30T01:51:19.544Z,2.45
2023-11-30T01:53:46.313Z,1.80
2023-11-30T01:56:13.111Z,2.17
2023-11-30T01:58:39.905Z,3.58
2023-11-30T02:01:07.117Z,2.45
2023-11-30T02:03:34.096Z,3.70
2023-11-30T02:06:00.923Z,6.32
2023-11-30T02:08:27.759Z,7.30
2023-11-30T02:10:54.551Z,7.18
2023-11-30T02:13:21.257Z,5.38
2023-11-30T02:15:48.294Z,4.25
2023-11-30T02:18:15.267Z,3.03
2023-11-30T02:20:42.834Z,2.42
2023-11-30T02:23:09.630Z,2.20
2023-11-30T02:25:36.404Z,1.73
2023-11-30T02:28:03.229Z,2.58
2023-11-30T02:30:29.994Z,2.13
2023-11-30T02:32:56.889Z,3.50
2023-11-30T02:35:24.093Z,2.78
2023-11-30T02:37:50.860Z,2.33
2023-11-30T02:40:17.681Z,2.22
2023-11-30T02:42:44.459Z,2.78
2023-11-30T02:45:11.420Z,2.22
2023-11-30T02:47:38.192Z,1.95
2023-11-30T02:50:05.263Z,2.10
2023-11-30T02:52:32.220Z,2.45
2023-11-30T02:54:58.914Z,2.83
2023-11-30T02:57:25.680Z,3.58
2023-11-30T02:59:52.607Z,2.42
2023-11-30T03:02:19.483Z,2.65
2023-11-30T03:04:46.551Z,3.00
2023-11-30T03:07:13.304Z,2.58
2023-11-30T03:09:40.148Z,2.38
2023-11-30T03:12:07.117Z,2.40
2023-11-30T03:14:34.102Z,2.35
2023-11-30T03:17:00.798Z,1.60
2023-11-30T03:19:27.605Z,2.38
2023-11-30T03:21:54.431Z,3.08
2023-11-30T03:24:21.719Z,7.32
2023-11-30T03:26:48.474Z,3.35
2023-11-30T03:29:15.269Z,3.10
2023-11-30T03:31:42.106Z,2.92
2023-11-30T03:34:08.956Z,2.22
2023-11-30T03:36:35.849Z,2.53
2023-11-30T03:39:02.761Z,3.28
2023-11-30T03:41:29.562Z,2.92
2023-11-30T03:43:56.274Z,2.88
2023-11-30T03:46:25.448Z,4.18
2023-11-30T03:48:53.663Z,2.80
2023-11-30T03:51:20.554Z,3.13
2023-11-30T03:53:47.440Z,2.70
2023-11-30T03:56:14.418Z,2.42
2023-11-30T03:58:41.101Z,2.65
2023-11-30T04:01:08.153Z,2.53
2023-11-30T04:03:34.949Z,2.88
2023-11-30T04:06:01.839Z,3.30
2023-11-30T04:08:28.635Z,3.33
2023-11-30T04:10:55.433Z,4.10
2023-11-30T04:13:22.285Z,3.38
2023-11-30T04:15:49.036Z,3.10
2023-11-30T04:18:15.943Z,2.95
2023-11-30T04:20:42.794Z,4.40
2023-11-30T04:23:09.955Z,3.03
2023-11-30T04:25:36.854Z,2.95
2023-11-30T04:28:03.908Z,3.00
2023-11-30T04:30:30.771Z,2.45
2023-11-30T04:32:57.723Z,2.40
2023-11-30T04:35:24.525Z,3.20
2023-11-30T04:37:51.302Z,4.03
2023-11-30T04:40:19.777Z,4.68
2023-11-30T04:42:46.576Z,5.13
2023-11-30T04:45:13.370Z,8.93
2023-11-30T04:47:40.353Z,9.40
2023-11-30T04:50:07.908Z,6.90
2023-11-30T04:52:34.791Z,9.40
2023-11-30T04:55:01.979Z,12.55
2023-11-30T04:57:28.817Z,12.70
2023-11-30T04:59:55.957Z,8.95
2023-11-30T05:02:23.355Z,7.15
2023-11-30T05:04:50.424Z,7.25
2023-11-30T05:07:17.725Z,10.48
2023-11-30T05:09:44.634Z,9.45
2023-11-30T05:12:11.656Z,10.52
2023-11-30T05:14:38.428Z,10.32
2023-11-30T05:17:05.461Z,10.02
2023-11-30T05:19:32.346Z,8.35
2023-11-30T05:21:59.331Z,8.07
2023-11-30T05:24:26.187Z,7.63
2023-11-30T05:26:53.003Z,8.32
2023-11-30T05:29:19.804Z,8.00
2023-11-30T05:31:46.629Z,9.68
2023-11-30T05:34:13.475Z,9.57
2023-11-30T05:36:40.172Z,6.78
2023-11-30T05:39:08.313Z,6.47
2023-11-30T05:41:35.238Z,9.55
2023-11-30T05:44:03.721Z,9.23
2023-11-30T05:46:31.082Z,9.25
2023-11-30T05:48:57.911Z,15.73
2023-11-30T05:51:24.846Z,11.68
2023-11-30T05:53:51.620Z,7.82
2023-11-30T05:56:18.350Z,10.38
2023-11-30T05:58:45.073Z,7.97
2023-11-30T06:01:12.646Z,10.15
2023-11-30T06:03:39.666Z,10.15
2023-11-30T06:06:09.775Z,7.35
2023-11-30T06:08:36.540Z,11.20
2023-11-30T06:11:03.500Z,37.70
2023-11-30T06:13:30.342Z,34.28
2023-11-30T06:15:57.352Z,39.20
2023-11-30T06:18:25.269Z,37.53
2023-11-30T06:20:52.131Z,35.15
2023-11-30T06:23:18.858Z,37.92
2023-11-30T06:25:45.657Z,33.95
2023-11-30T06:28:12.424Z,33.75
2023-11-30T06:30:39.629Z,30.27
2023-11-30T06:33:06.649Z,33.42
2023-11-30T06:35:33.391Z,34.72
2023-11-30T06:38:00.300Z,32.33
2023-11-30T06:40:27.139Z,33.15
2023-11-30T06:42:53.936Z,29.17
2023-11-30T06:45:21.002Z,29.92
2023-11-30T06:47:47.847Z,46.25
2023-11-30T06:50:14.765Z,43.05
2023-11-30T06:52:41.504Z,44.25
2023-11-30T06:55:08.413Z,39.22
2023-11-30T06:57:36.686Z,40.97
2023-11-30T07:00:05.035Z,36.95
2023-11-30T07:02:31.780Z,37.28
2023-11-30T07:04:58.691Z,36.22
2023-11-30T07:07:31.704Z,35.15
2023-11-30T07:10:03.149Z,36.83
2023-11-30T07:12:30.018Z,39.22
2023-11-30T07:14:56.934Z,36.17
2023-11-30T07:17:25.174Z,42.63
2023-11-30T07:19:53.733Z,37.33
2023-11-30T07:22:21.929Z,32.10
2023-11-30T07:24:49.136Z,29.42
2023-11-30T07:27:22.324Z,28.67
2023-11-30T07:29:49.265Z,24.85
2023-11-30T07:32:18.757Z,33.33
2023-11-30T07:34:45.994Z,31.23
2023-11-30T07:37:15.321Z,35.05
2023-11-30T07:39:42.175Z,30.30
2023-11-30T07:42:09.020Z,24.00
2023-11-30T07:44:36.586Z,26.08
2023-11-30T07:47:03.598Z,11.93
2023-11-30T07:49:30.343Z,18.02
2023-11-30T07:51:57.328Z,24.65
2023-11-30T07:54:24.148Z,23.00
2023-11-30T07:56:51.181Z,24.05
2023-11-30T07:59:18.295Z,23.17
2023-11-30T08:01:45.255Z,26.52
2023-11-30T08:04:12.053Z,24.35
2023-11-30T08:06:40.310Z,25.20
2023-11-30T08:09:07.588Z,25.30
2023-11-30T08:11:34.505Z,25.17
2023-11-30T08:14:01.389Z,30.83
2023-11-30T08:16:28.162Z,29.88
2023-11-30T08:18:55.046Z,77.47
2023-11-30T08:21:23.174Z,35.13
2023-11-30T08:23:50.292Z,24.75
2023-11-30T08:26:17.352Z,22.77
2023-11-30T08:28:44.575Z,21.35
2023-11-30T08:31:11.710Z,22.45
2023-11-30T08:33:38.517Z,18.98
2023-11-30T08:36:06.053Z,19.65
2023-11-30T08:38:37.576Z,22.85
2023-11-30T08:41:04.686Z,20.77
2023-11-30T08:45:01.494Z,18.30
2023-11-30T08:47:28.335Z,24.83
2023-11-30T08:49:55.148Z,16.20
2023-11-30T08:52:21.935Z,15.77
2023-11-30T08:54:48.734Z,16.67
2023-11-30T08:57:15.501Z,14.43
2023-11-30T08:59:42.367Z,14.10
2023-11-30T09:02:09.229Z,14.13
2023-11-30T09:04:36.138Z,13.15
2023-11-30T09:07:02.967Z,6.78
2023-11-30T09:09:29.754Z,12.32
2023-11-30T09:11:56.654Z,9.80
2023-11-30T09:14:24.136Z,2.40
2023-11-30T09:16:51.060Z,1.60
2023-11-30T09:19:17.871Z,4.13
2023-11-30T09:21:46.031Z,2.08
2023-11-30T09:24:12.902Z,0.85
2023-11-30T09:26:41.364Z,5.50
2023-11-30T09:29:10.109Z,4.85
2023-11-30T09:31:42.394Z,6.43
2023-11-30T09:34:10.332Z,5.65
2023-11-30T09:36:37.837Z,5.38
2023-11-30T09:39:04.684Z,2.47
2023-11-30T09:41:31.467Z,4.95
2023-11-30T09:43:59.754Z,1.83
2023-11-30T09:46:26.983Z,2.92
2023-11-30T09:48:53.805Z,4.00
2023-11-30T09:51:21.259Z,2.20
2023-11-30T09:53:48.065Z,2.40
2023-11-30T09:56:14.872Z,1.85
2023-11-30T09:58:43.609Z,1.02
2023-11-30T10:01:10.438Z,1.10
2023-11-30T10:03:39.341Z,1.98
2023-11-30T10:06:06.774Z,2.20
2023-11-30T10:08:33.630Z,0.93
2023-11-30T10:11:00.366Z,1.98
2023-11-30T10:13:27.216Z,1.40
2023-11-30T10:15:54.561Z,2.53
2023-11-30T10:18:21.474Z,1.35
2023-11-30T10:20:48.635Z,1.77
2023-11-30T10:23:15.465Z,2.00
2023-11-30T10:25:42.357Z,1.73
2023-11-30T10:28:15.051Z,1.65
2023-11-30T10:30:43.705Z,1.80
2023-11-30T10:33:15.456Z,1.83
2023-11-30T10:35:45.108Z,1.20
2023-11-30T10:38:16.702Z,1.65
2023-11-30T10:40:43.509Z,2.63
2023-11-30T10:43:10.307Z,1.55
2023-11-30T10:45:38.674Z,4.60
2023-11-30T10:49:41.537Z,3.15
2023-11-30T10:52:08.698Z,3.50
2023-11-30T10:54:52.200Z,2.40
2023-11-30T10:57:20.178Z,2.75
2023-11-30T10:59:47.047Z,2.28
2023-11-30T11:02:13.978Z,6.15
2023-11-30T11:04:42.171Z,3.33
2023-11-30T11:07:13.499Z,2.33
2023-11-30T11:09:53.175Z,1.63
2023-11-30T11:12:27.155Z,2.70
2023-11-30T11:15:14.179Z,4.03
2023-11-30T11:17:53.531Z,4.10
2023-11-30T11:20:26.176Z,2.45
2023-11-30T11:23:05.840Z,1.77
2023-11-30T11:25:47.916Z,3.70
2023-11-30T11:28:15.464Z,7.10
2023-11-30T11:30:47.266Z,3.25
2023-11-30T11:33:18.522Z,3.00
2023-11-30T11:35:45.494Z,1.35
2023-11-30T11:38:12.247Z,8.90
2023-11-30T11:40:42.961Z,1.13
2023-11-30T11:43:10.271Z,0.98
2023-11-30T11:45:38.428Z,0.93
2023-11-30T11:48:05.709Z,4.03
2023-11-30T11:50:32.556Z,1.77
2023-11-30T11:53:00.824Z,1.15
2023-11-30T11:55:27.714Z,2.03
2023-11-30T11:57:57.222Z,3.05
2023-11-30T12:00:25.953Z,2.53
2023-11-30T12:02:53.114Z,0.80
2023-11-30T12:05:23.209Z,2.10
2023-11-30T12:07:53.965Z,1.20
2023-11-30T12:10:28.852Z,1.10
2023-11-30T12:12:57.459Z,1.30
2023-11-30T12:15:24.299Z,1.10
2023-11-30T12:17:51.280Z,0.95
2023-11-30T12:20:21.676Z,1.13
2023-11-30T12:22:48.621Z,0.90
2023-11-30T12:25:15.572Z,0.77
2023-11-30T12:27:42.388Z,1.10
2023-11-30T12:30:10.108Z,1.42
2023-11-30T12:32:39.348Z,1.13
2023-11-30T12:35:07.042Z,1.25
2023-11-30T12:37:34.239Z,2.17
2023-11-30T12:40:01.120Z,1.75
2023-11-30T12:42:28.231Z,1.60
2023-11-30T12:44:55.106Z,1.38
2023-11-30T12:47:22.496Z,1.23
2023-11-30T12:49:49.331Z,1.40
2023-11-30T12:52:16.293Z,1.17
2023-11-30T12:54:43.673Z,1.30
2023-11-30T12:57:10.518Z,5.47
2023-11-30T12:59:38.070Z,4.82
2023-11-30T13:02:07.325Z,2.88
2023-11-30T13:04:35.072Z,2.88
2023-11-30T13:07:01.942Z,3.08
2023-11-30T13:09:33.623Z,1.88
2023-11-30T13:12:00.873Z,33.90
2023-11-30T13:14:27.665Z,2.88
2023-11-30T13:16:54.567Z,1.23
2023-11-30T13:19:24.663Z,1.52
2023-11-30T13:21:53.073Z,1.40
2023-11-30T13:24:20.552Z,1.40
2023-11-30T13:26:49.255Z,1.25
2023-11-30T13:29:16.380Z,2.70
2023-11-30T13:31:43.206Z,2.40
2023-11-30T13:34:09.968Z,1.75
2023-11-30T13:36:36.787Z,2.47
2023-11-30T13:39:06.227Z,3.17
2023-11-30T13:41:33.268Z,3.20
2023-11-30T13:44:00.027Z,2.35
2023-11-30T13:46:26.986Z,3.85
2023-11-30T13:48:53.846Z,2.08
2023-11-30T13:51:21.156Z,6.90
2023-11-30T13:53:48.239Z,5.05
2023-11-30T13:56:16.366Z,3.20
2023-11-30T13:58:43.365Z,1.63
2023-11-30T14:01:11.344Z,2.60
2023-11-30T14:03:38.910Z,2.20
2023-11-30T14:06:06.230Z,3.08
2023-11-30T14:08:33.410Z,9.27
2023-11-30T14:11:00.203Z,5.10
2023-11-30T14:13:27.024Z,5.45
2023-11-30T14:15:53.878Z,4.25
2023-11-30T14:18:20.921Z,2.97
2023-11-30T14:20:49.388Z,4.93
2023-11-30T14:23:16.142Z,4.63
2023-11-30T14:25:42.974Z,4.88
2023-11-30T14:28:12.786Z,4.30
2023-11-30T14:30:40.718Z,7.28
2023-11-30T14:33:10.698Z,6.63
2023-11-30T14:35:39.260Z,6.07
2023-11-30T14:38:06.531Z,2.75
2023-11-30T14:40:33.323Z,3.10
2023-11-30T14:43:00.397Z,2.20
2023-11-30T14:45:28.097Z,4.95
2023-11-30T14:47:55.036Z,7.07
2023-11-30T14:50:21.986Z,4.50
2023-11-30T14:52:48.806Z,4.25
2023-11-30T14:55:15.797Z,11.30
2023-11-30T14:57:43.447Z,5.50
2023-11-30T15:00:14.115Z,4.55
2023-11-30T15:02:43.150Z,4.65
2023-11-30T15:05:14.311Z,3.72
2023-11-30T15:07:41.344Z,4.82
2023-11-30T15:10:08.896Z,3.47
2023-11-30T15:12:37.425Z,2.00
2023-11-30T15:15:14.116Z,3.97
2023-11-30T15:17:44.159Z,2.50
2023-11-30T15:20:13.299Z,2.78
2023-11-30T15:22:40.780Z,3.10
2023-11-30T15:25:08.684Z,2.30
2023-11-30T15:27:36.419Z,2.38
2023-11-30T15:30:04.629Z,2.53
2023-11-30T15:32:31.672Z,4.50
2023-11-30T15:34:58.537Z,2.83
2023-11-30T15:37:25.265Z,3.17
2023-11-30T15:39:54.258Z,4.72
2023-11-30T15:42:21.356Z,6.35
2023-11-30T15:44:48.238Z,7.82
2023-11-30T15:47:15.034Z,11.25
2023-11-30T15:49:41.829Z,7.10
2023-11-30T15:52:08.554Z,5.38
2023-11-30T15:54:35.334Z,5.60
2023-11-30T15:57:02.183Z,6.95
2023-11-30T15:59:28.948Z,3.45
2023-11-30T16:01:55.831Z,3.80
2023-11-30T16:04:22.698Z,4.97
2023-11-30T16:06:49.684Z,6.93
2023-11-30T16:09:16.526Z,6.05
2023-11-30T16:11:43.390Z,4.72
2023-11-30T16:14:10.299Z,4.05
2023-11-30T16:16:41.173Z,5.15
2023-11-30T16:19:08.160Z,4.72
2023-11-30T16:21:35.277Z,3.78
2023-11-30T16:24:02.098Z,2.97
2023-11-30T16:26:28.933Z,3.38
2023-11-30T16:28:55.753Z,5.38
2023-11-30T16:31:22.644Z,5.70
2023-11-30T16:33:52.095Z,3.78
2023-11-30T16:36:19.566Z,3.80
2023-11-30T16:38:46.560Z,3.40
2023-11-30T16:41:16.396Z,5.30
2023-11-30T16:43:43.141Z,3.15
2023-11-30T16:46:10.132Z,2.00
2023-11-30T16:48:37.089Z,3.95
2023-11-30T16:51:10.537Z,3.63
2023-11-30T16:53:37.516Z,3.03
2023-11-30T16:56:05.176Z,3.60
2023-11-30T16:58:32.773Z,3.03
2023-11-30T17:00:59.847Z,4.60
2023-11-30T17:03:27.052Z,6.57
2023-11-30T17:05:54.117Z,3.50
2023-11-30T17:08:21.097Z,6.43
2023-11-30T17:10:48.138Z,18.40
2023-11-30T17:13:15.058Z,7.22
2023-11-30T17:15:41.995Z,6.68
2023-11-30T17:18:08.803Z,5.60
2023-11-30T17:20:35.620Z,5.13
2023-11-30T17:23:04.111Z,8.88
2023-11-30T17:25:31.122Z,5.72
2023-11-30T17:27:59.873Z,4.68
2023-11-30T17:32:53.889Z,4.28
2023-11-30T17:35:20.968Z,2.97
2023-11-30T17:37:47.879Z,2.55
2023-11-30T17:40:14.944Z,3.03
2023-11-30T17:42:41.754Z,3.60
2023-11-30T17:45:10.653Z,2.53
2023-11-30T17:47:37.889Z,2.05
2023-11-30T17:50:05.125Z,2.05
2023-11-30T17:52:31.923Z,2.60
2023-11-30T17:54:58.943Z,1.20
2023-11-30T17:57:25.832Z,2.38
2023-11-30T17:59:54.414Z,1.27
2023-11-30T18:02:22.854Z,0.82
2023-11-30T18:04:49.856Z,1.60
2023-11-30T18:07:16.705Z,1.98
2023-11-30T18:09:44.161Z,1.27
2023-11-30T18:12:11.003Z,1.83
2023-11-30T18:14:38.727Z,1.58
2023-11-30T18:17:06.001Z,1.15
2023-11-30T18:19:32.898Z,0.90
2023-11-30T18:21:59.766Z,1.58
2023-11-30T18:24:31.455Z,2.00
2023-11-30T18:26:59.244Z,1.30
2023-11-30T18:29:26.139Z,1.10
2023-11-30T18:31:53.295Z,1.63
2023-11-30T18:34:20.783Z,1.40
2023-11-30T18:36:47.890Z,2.42
2023-11-30T18:39:16.389Z,2.33
2023-11-30T18:41:43.756Z,2.47
2023-11-30T18:44:12.719Z,2.70
2023-11-30T18:46:40.206Z,1.40
2023-11-30T18:49:07.215Z,1.58
2023-11-30T18:51:35.499Z,2.30
2023-11-30T18:54:02.590Z,3.50
2023-11-30T18:56:29.975Z,2.33
2023-11-30T18:58:57.334Z,1.60
2023-11-30T19:01:25.163Z,2.10
2023-11-30T19:03:52.529Z,3.72
2023-11-30T19:06:20.123Z,2.28
2023-11-30T19:08:47.441Z,1.27
2023-11-30T19:11:14.611Z,1.30
2023-11-30T19:13:43.047Z,1.98
2023-11-30T19:16:21.992Z,1.27
2023-11-30T19:18:50.295Z,1.55
2023-11-30T19:21:17.681Z,4.57
2023-11-30T19:23:46.726Z,8.02
2023-11-30T19:26:14.082Z,2.40
2023-11-30T19:28:41.281Z,2.30
2023-11-30T19:31:08.556Z,2.22
2023-11-30T19:33:35.765Z,3.17
2023-11-30T19:36:02.872Z,2.10
2023-11-30T19:38:30.063Z,2.90
2023-11-30T19:40:57.440Z,2.33
2023-11-30T19:43:25.293Z,1.90
2023-11-30T19:45:53.686Z,1.75
2023-11-30T19:48:20.828Z,4.75
2023-11-30T19:50:47.857Z,2.20
2023-11-30T19:53:17.830Z,4.57
2023-11-30T19:55:48.041Z,1.88
2023-11-30T19:58:15.371Z,2.70
2023-11-30T20:00:44.626Z,3.55
2023-11-30T20:03:12.131Z,2.53
2023-11-30T20:05:39.368Z,2.47
2023-11-30T20:08:06.588Z,2.15
2023-11-30T20:10:33.546Z,3.20
2023-11-30T20:13:02.322Z,1.95
2023-11-30T20:17:58.582Z,4.00
2023-11-30T20:20:25.690Z,4.57
2023-11-30T20:22:52.552Z,3.17
2023-11-30T20:25:19.518Z,2.58
2023-11-30T20:27:46.517Z,5.18
2023-11-30T20:30:13.702Z,5.45
2023-11-30T20:32:42.336Z,2.75
2023-11-30T20:35:09.720Z,4.07
2023-11-30T20:37:36.501Z,3.75
2023-11-30T20:40:04.156Z,4.57
2023-11-30T20:42:31.280Z,3.90
2023-11-30T20:44:58.254Z,4.13
2023-11-30T20:47:26.005Z,5.35
2023-11-30T20:49:53.209Z,5.95
2023-11-30T20:52:20.165Z,3.55
2023-11-30T20:54:50.017Z,3.65
2023-11-30T20:57:16.837Z,2.47
2023-11-30T20:59:43.586Z,1.70
2023-11-30T21:02:11.219Z,2.35
2023-11-30T21:04:38.556Z,2.08
2023-11-30T21:07:07.200Z,2.35
2023-11-30T21:09:34.108Z,1.60
2023-11-30T21:12:01.040Z,1.60
2023-11-30T21:14:27.818Z,1.58
2023-11-30T21:16:54.802Z,1.70
2023-11-30T21:19:21.760Z,1.80
2023-11-30T21:21:48.780Z,1.10
2023-11-30T21:24:16.158Z,1.77
2023-11-30T21:26:43.145Z,1.52
2023-11-30T21:29:10.101Z,1.13
2023-11-30T21:31:39.051Z,2.70
2023-11-30T21:34:06.328Z,2.67
2023-11-30T21:36:33.377Z,1.98
2023-11-30T21:39:00.442Z,1.60
2023-11-30T21:41:27.208Z,2.22
2023-11-30T21:43:54.099Z,2.17
2023-11-30T21:46:20.941Z,1.63
2023-11-30T21:48:47.944Z,1.70
2023-11-30T21:51:14.824Z,3.53
2023-11-30T21:53:41.621Z,4.95
2023-11-30T21:56:10.812Z,3.20
2023-11-30T21:58:38.088Z,4.47
2023-11-30T22:01:08.436Z,3.95
2023-11-30T22:03:35.489Z,6.40
2023-11-30T22:06:02.439Z,5.57
2023-11-30T22:08:29.208Z,3.45
2023-11-30T22:10:56.131Z,5.60
2023-11-30T22:13:23.262Z,7.18
2023-11-30T22:15:57.168Z,5.97
2023-11-30T22:18:31.048Z,5.95
2023-11-30T22:20:57.911Z,7.43
2023-11-30T22:23:24.859Z,6.90
2023-11-30T22:25:58.609Z,8.65
2023-11-30T22:28:30.427Z,12.15
2023-11-30T22:30:57.177Z,8.27
2023-11-30T22:33:23.924Z,15.32
2023-11-30T22:35:50.827Z,8.02
2023-11-30T22:38:17.808Z,5.63
2023-11-30T22:40:44.690Z,4.47
2023-11-30T22:43:11.527Z,5.18
2023-11-30T22:45:38.874Z,4.55
2023-11-30T22:48:05.844Z,6.13
2023-11-30T22:50:32.712Z,6.88
2023-11-30T22:52:59.725Z,4.82
2023-11-30T22:55:26.726Z,3.45
2023-11-30T22:57:54.208Z,8.15
2023-11-30T23:00:21.664Z,4.97
2023-11-30T23:02:52.291Z,5.38
2023-11-30T23:05:19.350Z,5.00
2023-11-30T23:07:46.202Z,5.53
2023-11-30T23:10:16.447Z,3.67
2023-11-30T23:12:43.300Z,7.07
2023-11-30T23:15:10.551Z,5.57
2023-11-30T23:17:37.484Z,6.68
2023-11-30T23:20:05.434Z,6.28
2023-11-30T23:22:32.218Z,5.80
2023-11-30T23:24:59.064Z,5.35
2023-11-30T23:27:25.851Z,6.25
2023-11-30T23:29:53.146Z,5.47
2023-11-30T23:32:19.913Z,3.20
2023-11-30T23:34:46.635Z,4.53
2023-11-30T23:37:13.445Z,5.80
2023-11-30T23:39:40.237Z,5.18
2023-11-30T23:42:07.138Z,4.38
2023-11-30T23:44:33.971Z,5.10
2023-11-30T23:47:00.845Z,4.55
2023-11-30T23:49:27.744Z,5.63
2023-11-30T23:51:54.517Z,4.50
2023-11-30T23:54:21.352Z,3.83
2023-11-30T23:56:48.127Z,3.75
2023-11-30T23:59:14.870Z,3.40
